Time;durP1;ratioP1;P1;durP2;ratioP2;P2;SDS_P1;SDS_P2;PMS_P1;PMS_P2;Temp;Humidity;BMP_temperature;BMP_pressure;BME280_temperature;BME280_humidity;BME280_pressure;Samples;Min_cycle;Max_cycle;Signal;HPM_P1;HPM_P2
2021/01/06 00:01:24;;;;;;;15.82;9.65;;;2.60;99.90;;;;;;5027651;28;20186;-67
2021/01/06 00:03:51;;;;;;;13.33;8.90;;;2.60;99.90;;;;;;5028836;28;20181;-67
2021/01/06 00:06:21;;;;;;;15.23;9.80;;;2.50;99.90;;;;;;5030180;28;20493;-67
2021/01/06 00:08:47;;;;;;;13.73;9.73;;;2.60;99.90;;;;;;5028733;28;20279;-67
2021/01/06 00:11:13;;;;;;;16.57;9.90;;;2.60;99.90;;;;;;5022128;28;20508;-67
2021/01/06 00:13:39;;;;;;;17.80;9.90;;;2.50;99.90;;;;;;5028855;28;20178;-67
2021/01/06 00:16:06;;;;;;;15.50;9.63;;;2.60;99.90;;;;;;5025820;28;20194;-67
2021/01/06 00:18:32;;;;;;;16.27;10.30;;;2.60;99.90;;;;;;5026290;28;20186;-68
2021/01/06 00:20:58;;;;;;;15.00;9.10;;;2.60;99.90;;;;;;5027055;28;20186;-68
2021/01/06 00:23:24;;;;;;;16.90;9.52;;;2.60;99.90;;;;;;5027593;28;20672;-68
2021/01/06 00:25:50;;;;;;;16.70;10.55;;;2.60;99.90;;;;;;5030820;28;20186;-68
2021/01/06 00:28:18;;;;;;;16.05;9.50;;;2.60;99.90;;;;;;5028543;28;20296;-68
2021/01/06 00:30:47;;;;;;;16.83;11.32;;;2.60;99.90;;;;;;5022752;28;20197;-68
2021/01/06 00:33:15;;;;;;;17.85;10.63;;;2.60;99.90;;;;;;5041034;28;20327;-67
2021/01/06 00:35:41;;;;;;;16.20;10.80;;;2.60;99.90;;;;;;5020585;28;20193;-66
2021/01/06 00:38:07;;;;;;;17.93;11.30;;;2.60;99.90;;;;;;5029377;28;20197;-67
2021/01/06 00:40:34;;;;;;;18.33;10.80;;;2.60;99.90;;;;;;5023989;28;20238;-67
2021/01/06 00:43:03;;;;;;;18.55;11.75;;;2.60;99.90;;;;;;5014130;28;20193;-66
2021/01/06 00:45:29;;;;;;;18.88;12.15;;;2.60;99.90;;;;;;5029998;28;20182;-67
2021/01/06 00:47:55;;;;;;;19.13;11.30;;;2.70;99.90;;;;;;5029268;28;20220;-67
2021/01/06 00:50:23;;;;;;;21.93;13.20;;;2.60;99.90;;;;;;5018786;28;20190;-67
2021/01/06 00:52:48;;;;;;;22.17;12.70;;;2.60;99.90;;;;;;5014165;28;20445;-67
2021/01/06 00:55:14;;;;;;;24.10;12.60;;;2.60;99.90;;;;;;5024428;28;20188;-67
2021/01/06 00:57:39;;;;;;;19.10;12.47;;;2.60;99.90;;;;;;5014128;28;20201;-68
2021/01/06 01:00:15;;;;;;;19.90;11.50;;;2.70;99.90;;;;;;5029290;28;20226;-67
2021/01/06 01:02:44;;;;;;;22.02;12.60;;;2.60;99.90;;;;;;5027670;28;20644;-66
2021/01/06 01:05:10;;;;;;;21.00;12.25;;;2.60;99.90;;;;;;5026714;28;20178;-67
2021/01/06 01:07:36;;;;;;;21.48;13.30;;;2.60;99.90;;;;;;5028764;28;21013;-66
2021/01/06 01:10:03;;;;;;;23.40;13.33;;;2.60;99.90;;;;;;5029165;28;20243;-67
2021/01/06 01:12:28;;;;;;;28.45;14.52;;;2.60;99.90;;;;;;5018656;28;20182;-67
2021/01/06 01:14:54;;;;;;;22.23;12.77;;;2.60;99.90;;;;;;5018822;28;20207;-67
2021/01/06 01:17:19;;;;;;;21.87;13.20;;;2.60;99.90;;;;;;5024555;28;20197;-67
2021/01/06 01:19:45;;;;;;;27.43;14.13;;;2.60;99.90;;;;;;5016678;28;20622;-67
2021/01/06 01:22:11;;;;;;;26.60;13.70;;;2.70;99.90;;;;;;5017007;28;21032;-67
2021/01/06 01:24:36;;;;;;;26.73;14.47;;;2.70;99.90;;;;;;5029867;28;20193;-66
2021/01/06 01:27:03;;;;;;;22.10;13.37;;;2.70;99.90;;;;;;5024245;28;20617;-66
2021/01/06 01:29:28;;;;;;;27.60;12.73;;;2.70;99.90;;;;;;5023448;28;20189;-66
2021/01/06 01:31:54;;;;;;;31.10;14.97;;;2.70;99.90;;;;;;5028987;28;20189;-65
2021/01/06 01:34:19;;;;;;;23.40;13.27;;;2.70;99.90;;;;;;5028334;28;20193;-66
2021/01/06 01:36:47;;;;;;;27.50;14.17;;;2.60;99.90;;;;;;5025168;28;20607;-66
2021/01/06 01:39:12;;;;;;;26.38;14.95;;;2.60;99.90;;;;;;5016646;28;20248;-66
2021/01/06 01:41:38;;;;;;;23.47;12.87;;;2.60;99.90;;;;;;5025861;28;20225;-67
2021/01/06 01:44:04;;;;;;;26.30;13.27;;;2.60;99.90;;;;;;5018197;28;20248;-67
2021/01/06 01:46:48;;;;;;;26.67;13.97;;;2.60;99.90;;;;;;5028914;28;20432;-67
2021/01/06 01:49:22;;;;;;;26.27;14.05;;;2.70;99.90;;;;;;5016310;28;20535;-66
2021/01/06 01:51:56;;;;;;;27.85;13.18;;;2.70;99.90;;;;;;5011592;28;20269;-66
2021/01/06 01:54:24;;;;;;;29.35;14.93;;;2.70;99.90;;;;;;5018345;28;20525;-66
2021/01/06 01:57:11;;;;;;;27.92;13.73;;;2.70;99.90;;;;;;5018654;28;20213;-66
2021/01/06 02:00:01;;;;;;;24.67;13.10;;;2.70;99.90;;;;;;5024325;28;20189;-66
2021/01/06 02:02:38;;;;;;;25.52;13.40;;;2.60;99.90;;;;;;5017454;28;20190;-66
2021/01/06 02:05:11;;;;;;;27.58;14.70;;;2.60;99.90;;;;;;5022361;28;20649;-67
2021/01/06 02:07:47;;;;;;;24.40;13.52;;;2.70;99.90;;;;;;5010647;28;20684;-67
2021/01/06 02:10:26;;;;;;;23.85;12.52;;;2.70;99.90;;;;;;5024181;28;20185;-67
2021/01/06 02:12:59;;;;;;;28.58;13.55;;;2.70;99.90;;;;;;5027741;28;20193;-66
2021/01/06 02:15:38;;;;;;;23.52;13.50;;;2.80;99.90;;;;;;5027774;28;20311;-67
2021/01/06 02:18:06;;;;;;;27.13;13.80;;;2.80;99.90;;;;;;5022301;28;20682;-66
2021/01/06 02:20:31;;;;;;;29.98;13.88;;;2.80;99.90;;;;;;5019040;28;20180;-66
2021/01/06 02:22:58;;;;;;;20.13;13.50;;;2.80;99.90;;;;;;5032909;28;20660;-66
2021/01/06 02:25:26;;;;;;;22.65;13.05;;;2.80;99.90;;;;;;5028322;28;20185;-66
2021/01/06 02:27:53;;;;;;;33.00;15.20;;;2.80;99.90;;;;;;5024463;28;20632;-66
2021/01/06 02:30:19;;;;;;;24.10;13.65;;;2.80;99.90;;;;;;5030038;28;20189;-66
2021/01/06 02:32:45;;;;;;;24.63;13.57;;;2.80;99.90;;;;;;5019414;28;20214;-66
2021/01/06 02:35:12;;;;;;;25.10;13.05;;;2.80;99.90;;;;;;5021901;28;20256;-66
2021/01/06 02:37:39;;;;;;;29.42;15.25;;;2.90;99.90;;;;;;5019292;28;20178;-66
2021/01/06 02:40:07;;;;;;;24.42;13.68;;;2.90;99.90;;;;;;5028827;28;20677;-66
2021/01/06 02:42:33;;;;;;;20.98;11.77;;;3.00;99.90;;;;;;5027411;28;20186;-66
2021/01/06 02:44:59;;;;;;;24.50;13.57;;;2.90;99.90;;;;;;5029137;28;20196;-66
2021/01/06 02:47:25;;;;;;;25.10;12.90;;;2.80;99.90;;;;;;5025368;28;21028;-67
2021/01/06 02:49:52;;;;;;;21.52;12.80;;;2.80;99.90;;;;;;5027215;28;20576;-67
2021/01/06 02:52:25;;;;;;;24.00;13.45;;;2.90;99.90;;;;;;5026694;28;21314;-67
2021/01/06 02:54:52;;;;;;;29.85;13.60;;;2.80;99.90;;;;;;5029964;28;20579;-67
2021/01/06 02:57:18;;;;;;;24.67;12.93;;;2.80;99.90;;;;;;5028045;28;20633;-66
2021/01/06 02:59:47;;;;;;;26.02;13.30;;;2.80;99.90;;;;;;5023128;28;20663;-66
2021/01/06 03:02:21;;;;;;;24.13;12.45;;;2.80;99.90;;;;;;5018784;28;20534;-66
2021/01/06 03:05:11;;;;;;;21.05;12.45;;;2.90;99.90;;;;;;5028291;28;20202;-66
2021/01/06 03:07:38;;;;;;;27.10;12.88;;;2.90;99.90;;;;;;5031643;28;20255;-66
2021/01/06 03:10:05;;;;;;;20.38;11.88;;;2.80;99.90;;;;;;5030774;28;20196;-66
2021/01/06 03:12:33;;;;;;;25.52;12.73;;;2.80;99.90;;;;;;5025643;28;20182;-66
2021/01/06 03:14:59;;;;;;;21.65;12.60;;;2.90;99.90;;;;;;5012582;28;20182;-66
2021/01/06 03:17:28;;;;;;;24.42;12.68;;;2.90;99.90;;;;;;5026266;28;20181;-66
2021/01/06 03:20:07;;;;;;;26.02;13.60;;;2.90;99.90;;;;;;5015586;28;20599;-66
2021/01/06 03:22:34;;;;;;;21.83;11.75;;;2.90;99.90;;;;;;5026333;28;20186;-66
2021/01/06 03:25:12;;;;;;;23.23;12.48;;;2.90;99.90;;;;;;5030889;28;20194;-66
2021/01/06 03:27:39;;;;;;;23.13;14.07;;;2.80;99.90;;;;;;5028819;28;20675;-66
2021/01/06 03:30:08;;;;;;;20.65;12.07;;;2.80;99.90;;;;;;5028874;28;20211;-66
2021/01/06 03:32:59;;;;;;;21.02;11.63;;;2.80;99.90;;;;;;5024806;28;20186;-66
2021/01/06 03:35:39;;;;;;;23.52;12.50;;;2.80;99.90;;;;;;5024912;28;20536;-66
2021/01/06 03:38:20;;;;;;;23.27;11.63;;;2.90;99.90;;;;;;5028527;28;20284;-66
2021/01/06 03:40:51;;;;;;;20.13;11.23;;;2.80;99.90;;;;;;5030569;28;20790;-66
2021/01/06 03:43:18;;;;;;;19.80;11.75;;;2.80;99.90;;;;;;5031599;28;20220;-66
2021/01/06 03:45:48;;;;;;;21.88;11.95;;;2.80;99.90;;;;;;5024197;28;20210;-66
2021/01/06 03:48:28;;;;;;;23.38;12.60;;;2.70;99.90;;;;;;5024893;28;20244;-66
2021/01/06 03:51:00;;;;;;;21.15;11.48;;;2.80;99.90;;;;;;5017782;28;20185;-66
2021/01/06 03:53:38;;;;;;;19.38;10.93;;;2.70;99.90;;;;;;5013154;28;20853;-66
2021/01/06 03:56:22;;;;;;;20.48;12.02;;;2.70;99.90;;;;;;5015615;28;20207;-66
2021/01/06 03:59:10;;;;;;;21.10;10.98;;;2.70;99.90;;;;;;5028037;28;20248;-66
2021/01/06 04:01:41;;;;;;;18.30;10.73;;;2.70;99.90;;;;;;5029062;28;20192;-66
2021/01/06 04:04:30;;;;;;;20.52;9.70;;;2.70;99.90;;;;;;5025664;28;20211;-66
2021/01/06 04:07:01;;;;;;;17.70;10.10;;;2.70;99.90;;;;;;5018583;28;20193;-66
2021/01/06 04:09:43;;;;;;;18.88;10.38;;;2.80;99.90;;;;;;5011490;28;20259;-66
2021/01/06 04:12:15;;;;;;;19.02;11.13;;;2.80;99.90;;;;;;5019602;28;20189;-66
2021/01/06 04:14:41;;;;;;;15.40;9.70;;;2.90;99.90;;;;;;5029310;28;20201;-66
2021/01/06 04:17:29;;;;;;;19.38;10.35;;;2.90;99.90;;;;;;5027368;28;20192;-66
2021/01/06 04:20:04;;;;;;;17.13;10.13;;;2.80;99.90;;;;;;5017810;28;20537;-66
2021/01/06 04:22:51;;;;;;;18.65;10.10;;;2.80;99.90;;;;;;5016569;28;20176;-66
2021/01/06 04:25:22;;;;;;;15.02;9.60;;;2.80;99.90;;;;;;5020259;28;20661;-66
2021/01/06 04:27:58;;;;;;;15.32;9.25;;;2.80;99.90;;;;;;5023302;28;20611;-66
2021/01/06 04:30:40;;;;;;;15.75;9.50;;;2.80;99.90;;;;;;5020120;28;20620;-66
2021/01/06 04:33:19;;;;;;;15.27;9.70;;;2.90;99.90;;;;;;5021575;28;20182;-66
2021/01/06 04:35:45;;;;;;;15.15;9.90;;;2.90;99.90;;;;;;5017898;28;20198;-66
2021/01/06 04:38:29;;;;;;;15.98;8.95;;;2.90;99.90;;;;;;5011403;28;20202;-66
2021/01/06 04:40:57;;;;;;;14.20;8.38;;;2.90;99.90;;;;;;5048611;28;20241;-66
2021/01/06 04:43:35;;;;;;;13.85;8.32;;;2.80;99.90;;;;;;5011177;28;20503;-66
2021/01/06 04:46:01;;;;;;;15.43;8.80;;;2.80;99.90;;;;;;5028717;28;20205;-66
2021/01/06 04:48:39;;;;;;;13.63;8.93;;;2.80;99.90;;;;;;5029904;28;20933;-66
2021/01/06 04:51:09;;;;;;;14.48;9.00;;;2.90;99.90;;;;;;5025205;28;20429;-66
2021/01/06 04:54:09;;;;;;;15.00;8.80;;;2.90;99.90;;;;;;5030420;28;20209;-66
2021/01/06 04:56:53;;;;;;;15.85;8.07;;;2.90;99.90;;;;;;5024197;28;20188;-65
2021/01/06 04:59:52;;;;;;;13.95;8.60;;;2.90;99.90;;;;;;5030533;28;20193;-65
2021/01/06 05:02:54;;;;;;;14.98;8.45;;;2.90;99.90;;;;;;5012495;28;20217;-66
2021/01/06 05:05:42;;;;;;;15.07;8.32;;;2.90;99.90;;;;;;5013342;28;20205;-66
2021/01/06 05:08:39;;;;;;;14.88;9.65;;;2.90;99.90;;;;;;5028870;28;20227;-66
2021/01/06 05:11:11;;;;;;;14.50;9.02;;;3.00;99.90;;;;;;5019116;28;20186;-66
2021/01/06 05:13:45;;;;;;;14.65;9.00;;;3.00;99.90;;;;;;5026911;28;20228;-67
2021/01/06 05:16:23;;;;;;;15.95;9.32;;;3.00;99.90;;;;;;5013200;28;20256;-66
2021/01/06 05:18:49;;;;;;;14.60;9.18;;;3.00;99.90;;;;;;5002564;28;20200;-66
2021/01/06 05:21:23;;;;;;;13.70;8.43;;;3.00;99.90;;;;;;5001885;28;20190;-67
2021/01/06 05:23:53;;;;;;;15.13;8.50;;;3.00;99.90;;;;;;5003474;28;21204;-67
2021/01/06 05:26:19;;;;;;;17.58;9.57;;;3.10;99.90;;;;;;5001111;28;20235;-67
2021/01/06 05:28:48;;;;;;;14.13;9.30;;;3.00;99.90;;;;;;5001434;28;20699;-66
2021/01/06 05:31:13;;;;;;;16.40;9.45;;;3.10;99.90;;;;;;5003068;28;20182;-66
2021/01/06 05:33:46;;;;;;;13.63;8.70;;;3.10;99.90;;;;;;5004731;28;20657;-66
2021/01/06 05:36:32;;;;;;;14.57;8.80;;;3.10;99.90;;;;;;5007164;28;20191;-66
2021/01/06 05:39:03;;;;;;;17.90;10.63;;;3.10;99.90;;;;;;5005695;28;20206;-66
2021/01/06 05:41:29;;;;;;;15.48;9.30;;;3.10;99.90;;;;;;5018349;28;20237;-66
2021/01/06 05:43:55;;;;;;;15.87;9.57;;;3.00;99.90;;;;;;5015725;28;20217;-67
2021/01/06 05:46:30;;;;;;;16.50;9.63;;;3.00;99.90;;;;;;5024342;28;20186;-66
2021/01/06 05:49:02;;;;;;;15.23;9.40;;;3.00;99.90;;;;;;5028265;28;20479;-66
2021/01/06 05:51:36;;;;;;;17.75;9.23;;;3.00;99.90;;;;;;5028305;28;20213;-66
2021/01/06 05:54:33;;;;;;;20.45;9.77;;;3.00;99.90;;;;;;5024780;28;20200;-66
2021/01/06 05:57:20;;;;;;;18.42;9.75;;;3.00;99.90;;;;;;5009523;28;20526;-66
2021/01/06 05:59:49;;;;;;;14.68;9.73;;;3.10;99.90;;;;;;5017997;28;20568;-65
2021/01/06 06:02:25;;;;;;;16.40;9.43;;;3.10;99.90;;;;;;5022572;28;20196;-65
2021/01/06 06:05:14;;;;;;;16.10;9.70;;;3.00;99.90;;;;;;5023096;28;20225;-65
2021/01/06 06:08:08;;;;;;;15.23;9.20;;;3.00;99.90;;;;;;5028928;28;20756;-65
2021/01/06 06:11:07;;;;;;;17.27;10.07;;;3.00;99.90;;;;;;5024174;28;20205;-65
2021/01/06 06:13:49;;;;;;;18.40;10.95;;;3.00;99.90;;;;;;5028842;28;20638;-66
2021/01/06 06:16:27;;;;;;;14.68;8.73;;;3.10;99.90;;;;;;5019589;28;20174;-65
2021/01/06 06:19:22;;;;;;;13.52;8.93;;;3.10;99.90;;;;;;5023770;28;20692;-65
2021/01/06 06:22:06;;;;;;;17.77;9.40;;;3.00;99.90;;;;;;5028824;28;20180;-64
2021/01/06 06:24:42;;;;;;;17.92;9.52;;;3.00;99.90;;;;;;5013906;28;20186;-66
2021/01/06 06:27:19;;;;;;;14.73;8.60;;;3.10;99.90;;;;;;5027427;28;20235;-64
2021/01/06 06:30:04;;;;;;;14.70;8.80;;;3.10;99.90;;;;;;5022249;28;20280;-65
2021/01/06 06:32:31;;;;;;;15.88;9.73;;;3.10;99.90;;;;;;5027560;28;20699;-64
2021/01/06 06:35:15;;;;;;;17.90;9.00;;;3.20;99.90;;;;;;5015327;28;20282;-65
2021/01/06 06:38:13;;;;;;;17.70;8.75;;;3.20;99.90;;;;;;5010352;28;20205;-65
2021/01/06 06:41:00;;;;;;;16.67;9.13;;;3.10;99.90;;;;;;5032053;28;20696;-66
2021/01/06 06:43:34;;;;;;;17.13;9.70;;;3.10;99.90;;;;;;5013983;28;20999;-66
2021/01/06 06:46:11;;;;;;;16.80;9.15;;;3.10;99.90;;;;;;5031944;28;20533;-66
2021/01/06 06:49:11;;;;;;;14.65;8.75;;;3.10;99.90;;;;;;5031065;28;20266;-66
2021/01/06 06:51:51;;;;;;;15.57;9.25;;;3.10;99.90;;;;;;5022632;28;20224;-66
2021/01/06 06:54:39;;;;;;;14.20;9.30;;;3.10;99.90;;;;;;5026133;28;20203;-66
2021/01/06 06:57:22;;;;;;;14.25;8.63;;;3.10;99.90;;;;;;5028180;28;20202;-65
2021/01/06 07:00:08;;;;;;;13.80;9.55;;;3.10;99.90;;;;;;5031335;28;20189;-65
2021/01/06 07:02:45;;;;;;;16.60;9.73;;;3.10;99.90;;;;;;5024981;28;20227;-66
2021/01/06 07:05:34;;;;;;;16.80;10.70;;;3.10;99.90;;;;;;5025657;28;20216;-66
2021/01/06 07:08:05;;;;;;;17.23;9.98;;;3.10;99.90;;;;;;5029941;28;20210;-65
2021/01/06 07:10:34;;;;;;;16.50;9.52;;;3.20;99.90;;;;;;5031087;28;20256;-65
2021/01/06 07:13:16;;;;;;;16.95;10.55;;;3.20;99.90;;;;;;5029193;28;20182;-65
2021/01/06 07:15:49;;;;;;;15.60;10.10;;;3.20;99.90;;;;;;5031413;28;20193;-65
2021/01/06 07:18:27;;;;;;;13.95;9.13;;;3.20;99.90;;;;;;5019395;28;20186;-65
2021/01/06 07:21:03;;;;;;;14.95;10.30;;;3.20;99.90;;;;;;5030205;28;20196;-64
2021/01/06 07:23:32;;;;;;;18.00;10.00;;;3.30;99.90;;;;;;5015373;28;20586;-65
2021/01/06 07:26:08;;;;;;;16.10;9.35;;;3.30;99.90;;;;;;5024557;28;20552;-66
2021/01/06 07:28:35;;;;;;;13.52;9.23;;;3.40;99.90;;;;;;5030278;28;20205;-66
2021/01/06 07:31:21;;;;;;;15.52;9.55;;;3.40;99.90;;;;;;5029146;28;20167;-66
2021/01/06 07:34:00;;;;;;;15.32;9.52;;;3.30;99.90;;;;;;5020134;28;20186;-65
2021/01/06 07:36:32;;;;;;;16.48;9.75;;;3.40;99.90;;;;;;5024046;28;20603;-66
2021/01/06 07:39:00;;;;;;;14.07;9.57;;;3.40;99.90;;;;;;5029319;28;20220;-65
2021/01/06 07:41:28;;;;;;;14.90;9.65;;;3.40;99.90;;;;;;5026164;28;20264;-65
2021/01/06 07:44:24;;;;;;;15.60;8.93;;;3.30;99.90;;;;;;5028272;28;20204;-65
2021/01/06 07:47:01;;;;;;;13.43;8.25;;;3.30;99.90;;;;;;5030061;28;20637;-63
2021/01/06 07:49:53;;;;;;;14.40;9.27;;;3.40;99.90;;;;;;5015335;28;20245;-64
2021/01/06 07:52:54;;;;;;;12.38;8.55;;;3.30;99.90;;;;;;4990821;28;20190;-64
2021/01/06 07:55:40;;;;;;;12.13;7.53;;;3.30;99.90;;;;;;4990831;28;20171;-67
2021/01/06 07:58:18;;;;;;;12.45;8.13;;;3.30;99.90;;;;;;4990404;28;20180;-67
2021/01/06 08:01:31;;;;;;;12.80;7.53;;;3.30;99.90;;;;;;4989511;28;20176;-67
2021/01/06 08:04:08;;;;;;;10.27;6.25;;;3.30;99.90;;;;;;4984601;28;20196;-67
2021/01/06 08:06:38;;;;;;;10.05;6.53;;;3.40;99.90;;;;;;4991016;28;20704;-68
2021/01/06 08:09:04;;;;;;;10.88;5.93;;;3.30;99.90;;;;;;4984175;28;20211;-66
2021/01/06 08:11:30;;;;;;;11.50;6.80;;;3.40;99.90;;;;;;4990022;28;20195;-65
2021/01/06 08:14:00;;;;;;;10.33;6.13;;;3.40;99.90;;;;;;4989837;28;20613;-67
2021/01/06 08:16:55;;;;;;;12.30;7.38;;;3.30;99.90;;;;;;4989489;28;20971;-65
2021/01/06 08:19:40;;;;;;;12.52;7.20;;;3.30;99.90;;;;;;4986782;28;20225;-68
2021/01/06 08:22:27;;;;;;;8.80;6.28;;;3.40;99.90;;;;;;4987476;28;20613;-68
2021/01/06 08:25:20;;;;;;;7.32;5.45;;;3.40;99.90;;;;;;4988605;28;20303;-64
2021/01/06 08:27:46;;;;;;;8.60;5.80;;;3.60;99.90;;;;;;4987917;28;20207;-64
2021/01/06 08:30:26;;;;;;;6.73;5.90;;;3.60;99.90;;;;;;4989592;28;20188;-66
2021/01/06 08:33:07;;;;;;;7.05;4.90;;;3.60;99.90;;;;;;4987853;28;20434;-65
2021/01/06 08:35:38;;;;;;;8.95;5.72;;;3.60;99.90;;;;;;4984819;28;20789;-67
2021/01/06 08:38:21;;;;;;;9.65;5.78;;;3.60;99.90;;;;;;4989858;28;20182;-67
2021/01/06 08:40:47;;;;;;;10.20;5.50;;;3.60;99.90;;;;;;4990446;28;20282;-68
2021/01/06 08:43:13;;;;;;;8.00;5.47;;;3.50;99.90;;;;;;4988527;28;20206;-67
2021/01/06 08:45:53;;;;;;;8.60;5.50;;;3.50;99.90;;;;;;4988609;28;20179;-67
2021/01/06 08:48:36;;;;;;;8.68;6.22;;;3.40;99.90;;;;;;4987563;28;20288;-66
2021/01/06 08:51:11;;;;;;;8.60;5.82;;;3.50;99.90;;;;;;4989861;28;20179;-67
2021/01/06 08:53:40;;;;;;;9.27;5.75;;;3.40;99.90;;;;;;4989518;28;20218;-67
2021/01/06 08:56:29;;;;;;;6.50;4.53;;;3.50;99.90;;;;;;4990398;28;20191;-67
2021/01/06 08:58:57;;;;;;;5.68;4.30;;;3.50;99.90;;;;;;4982746;28;20803;-67
2021/01/06 09:01:52;;;;;;;4.10;3.30;;;3.50;99.90;;;;;;4987921;28;20183;-68
2021/01/06 09:04:22;;;;;;;4.20;3.58;;;3.60;99.90;;;;;;4985735;28;20266;-68
2021/01/06 09:07:03;;;;;;;6.15;4.68;;;3.60;99.90;;;;;;4989333;28;20200;-67
2021/01/06 09:09:53;;;;;;;5.47;4.10;;;3.50;99.90;;;;;;4982837;28;20322;-67
2021/01/06 09:12:38;;;;;;;6.22;4.50;;;3.60;99.90;;;;;;4988518;28;20295;-68
2021/01/06 09:15:14;;;;;;;11.23;8.50;;;3.60;99.90;;;;;;4988268;28;20180;-68
2021/01/06 09:18:07;;;;;;;8.25;5.50;;;3.60;99.90;;;;;;4988003;28;20234;-68
2021/01/06 09:20:47;;;;;;;5.60;4.47;;;3.60;99.90;;;;;;4989321;28;20188;-69
2021/01/06 09:23:17;;;;;;;6.88;4.93;;;3.60;99.90;;;;;;4986451;28;20191;-68
2021/01/06 09:25:43;;;;;;;7.25;4.78;;;3.60;97.90;;;;;;4988655;28;20192;-68
2021/01/06 09:28:13;;;;;;;6.27;4.60;;;3.60;99.90;;;;;;4987583;28;20570;-68
2021/01/06 09:30:40;;;;;;;6.28;4.53;;;3.60;99.90;;;;;;4986672;28;20423;-68
2021/01/06 09:33:24;;;;;;;6.43;4.65;;;3.60;99.80;;;;;;4988164;28;20183;-68
2021/01/06 09:35:51;;;;;;;7.18;4.68;;;3.50;99.90;;;;;;4989227;28;20187;-68
2021/01/06 09:38:47;;;;;;;7.07;4.40;;;3.50;99.90;;;;;;4986419;28;20195;-68
2021/01/06 09:41:27;;;;;;;7.68;4.70;;;3.50;99.90;;;;;;4988225;28;21048;-68
2021/01/06 09:44:08;;;;;;;6.28;4.57;;;3.50;99.90;;;;;;4986339;28;20191;-68
2021/01/06 09:47:19;;;;;;;7.40;4.70;;;3.50;99.90;;;;;;4988466;28;20184;-68
2021/01/06 09:49:50;;;;;;;7.93;5.30;;;3.50;99.90;;;;;;4985386;28;20231;-68
2021/01/06 09:52:34;;;;;;;8.00;4.75;;;3.50;99.90;;;;;;4988229;28;20267;-68
2021/01/06 09:55:00;;;;;;;6.10;5.20;;;3.40;99.90;;;;;;4987682;28;20214;-67
2021/01/06 09:57:28;;;;;;;6.78;4.95;;;3.40;99.90;;;;;;4986925;28;20238;-68
2021/01/06 09:59:57;;;;;;;6.72;4.68;;;3.40;99.90;;;;;;4987186;28;20187;-66
2021/01/06 10:02:31;;;;;;;8.40;5.35;;;3.30;99.90;;;;;;4986417;28;20298;-66
2021/01/06 10:05:16;;;;;;;4.65;3.47;;;3.30;99.90;;;;;;4988110;28;20192;-67
2021/01/06 10:08:19;;;;;;;3.60;2.97;;;3.40;99.90;;;;;;4977373;28;20203;-66
2021/01/06 10:10:48;;;;;;;3.67;2.80;;;3.40;99.90;;;;;;4988724;28;20183;-68
2021/01/06 10:13:32;;;;;;;3.08;2.80;;;3.40;95.40;;;;;;4988542;28;20206;-66
2021/01/06 10:16:18;;;;;;;4.05;3.45;;;3.40;96.00;;;;;;4984110;28;20262;-67
2021/01/06 10:19:04;;;;;;;4.60;3.40;;;3.40;92.10;;;;;;4985000;28;20183;-66
2021/01/06 10:21:43;;;;;;;3.50;3.20;;;3.40;94.00;;;;;;4986806;28;20635;-66
2021/01/06 10:24:32;;;;;;;4.45;3.10;;;3.30;98.20;;;;;;4984737;28;20190;-67
2021/01/06 10:27:22;;;;;;;5.03;3.35;;;3.30;99.90;;;;;;4981549;28;20227;-66
2021/01/06 10:29:51;;;;;;;4.90;3.47;;;3.30;99.90;;;;;;4984981;28;20213;-66
2021/01/06 10:32:18;;;;;;;4.35;3.65;;;3.30;99.90;;;;;;4987097;28;20655;-66
2021/01/06 10:34:50;;;;;;;4.68;4.07;;;3.30;99.90;;;;;;4987775;28;20172;-65
2021/01/06 10:37:22;;;;;;;4.47;3.60;;;3.30;99.90;;;;;;4988687;28;20198;-66
2021/01/06 10:39:51;;;;;;;5.40;4.68;;;3.30;99.90;;;;;;4987393;28;20234;-66
2021/01/06 10:42:17;;;;;;;5.07;4.03;;;3.30;99.90;;;;;;4988126;28;20218;-66
2021/01/06 10:45:08;;;;;;;4.60;4.10;;;3.40;99.90;;;;;;4987476;28;20839;-66
2021/01/06 10:47:33;;;;;;;6.00;4.43;;;3.40;99.90;;;;;;4987362;28;20191;-67
2021/01/06 10:50:43;;;;;;;5.10;4.17;;;3.40;99.90;;;;;;4986925;28;20183;-66
2021/01/06 10:53:17;;;;;;;5.50;4.47;;;3.50;98.90;;;;;;4985680;28;20171;-66
2021/01/06 10:55:46;;;;;;;5.97;4.45;;;3.50;95.00;;;;;;4986892;28;20238;-67
2021/01/06 10:58:17;;;;;;;4.45;4.00;;;3.50;92.80;;;;;;4988275;28;20572;-66
2021/01/06 11:01:05;;;;;;;5.45;4.22;;;3.50;95.70;;;;;;4987485;28;20868;-66
2021/01/06 11:03:39;;;;;;;4.50;3.58;;;3.60;91.40;;;;;;4988502;28;20182;-65
2021/01/06 11:06:36;;;;;;;5.03;4.05;;;3.50;81.90;;;;;;4987761;28;20192;-66
2021/01/06 11:09:31;;;;;;;4.93;3.88;;;3.60;84.80;;;;;;4986381;28;20322;-68
2021/01/06 11:12:38;;;;;;;5.68;4.60;;;3.60;73.80;;;;;;5004838;28;20661;-68
2021/01/06 11:15:25;;;;;;;3.95;3.40;;;3.50;83.10;;;;;;4981049;28;20213;-66
2021/01/06 11:18:23;;;;;;;4.70;3.60;;;3.40;82.60;;;;;;4985975;28;20646;-67
2021/01/06 11:21:07;;;;;;;3.83;3.15;;;3.40;80.00;;;;;;4998831;28;20535;-67
2021/01/06 11:23:34;;;;;;;5.07;3.55;;;3.40;70.50;;;;;;4985622;28;20216;-67
2021/01/06 11:26:20;;;;;;;3.95;3.15;;;3.40;71.20;;;;;;4990218;28;20191;-67
2021/01/06 11:29:05;;;;;;;4.43;3.30;;;3.40;75.40;;;;;;4989188;28;20222;-66
2021/01/06 11:31:35;;;;;;;4.60;3.95;;;3.40;66.90;;;;;;4986564;28;20283;-65
2021/01/06 11:34:10;;;;;;;5.60;4.40;;;3.40;63.90;;;;;;4990609;28;20179;-68
2021/01/06 11:36:45;;;;;;;5.32;4.50;;;3.40;68.10;;;;;;4989476;28;20187;-66
2021/01/06 11:39:37;;;;;;;4.72;3.70;;;3.40;75.70;;;;;;4990542;28;20187;-65
2021/01/06 11:42:09;;;;;;;3.15;2.85;;;3.40;68.00;;;;;;4987959;28;20208;-66
2021/01/06 11:45:13;;;;;;;3.60;2.95;;;3.40;47.60;;;;;;4990808;28;20657;-66
2021/01/06 11:47:45;;;;;;;4.10;3.30;;;3.30;53.20;;;;;;4985705;28;20312;-66
2021/01/06 11:50:33;;;;;;;5.57;3.90;;;3.20;64.40;;;;;;4989605;28;20211;-65
2021/01/06 11:53:32;;;;;;;4.25;3.40;;;3.30;64.40;;;;;;4988301;28;20187;-65
2021/01/06 11:56:04;;;;;;;4.55;3.60;;;3.30;65.10;;;;;;4990071;28;20840;-64
2021/01/06 11:58:45;;;;;;;3.90;3.22;;;3.30;73.90;;;;;;4990362;28;20183;-64
2021/01/06 12:01:43;;;;;;;4.40;3.17;;;3.30;70.80;;;;;;5004669;28;20198;-65
2021/01/06 12:04:35;;;;;;;3.10;2.75;;;3.30;73.80;;;;;;4995590;28;20242;-65
2021/01/06 12:07:12;;;;;;;3.40;2.80;;;3.20;71.30;;;;;;4990026;28;20197;-65
2021/01/06 12:09:54;;;;;;;2.58;2.35;;;3.20;71.40;;;;;;4989857;28;20961;-65
2021/01/06 12:12:49;;;;;;;3.10;2.75;;;3.20;75.90;;;;;;4990322;28;20178;-65
2021/01/06 12:15:42;;;;;;;3.67;3.05;;;3.20;72.80;;;;;;4995134;28;20207;-65
2021/01/06 12:18:32;;;;;;;4.18;2.92;;;3.20;63.20;;;;;;4987174;28;20271;-67
2021/01/06 12:21:00;;;;;;;3.50;3.03;;;3.20;47.40;;;;;;4990370;28;20198;-69
2021/01/06 12:23:44;;;;;;;2.85;2.65;;;3.30;71.30;;;;;;4989865;28;20207;-66
2021/01/06 12:26:45;;;;;;;4.20;3.00;;;3.30;49.00;;;;;;4983147;28;20269;-67
2021/01/06 12:29:20;;;;;;;4.18;3.00;;;3.20;91.50;;;;;;4982738;28;20204;-65
2021/01/06 12:32:33;;;;;;;3.55;3.00;;;3.30;56.50;;;;;;4985871;28;20629;-67
2021/01/06 12:35:21;;;;;;;3.20;2.90;;;3.30;83.10;;;;;;4985980;28;20180;-64
2021/01/06 12:38:08;;;;;;;3.17;2.88;;;3.20;53.10;;;;;;4980127;28;20198;-66
2021/01/06 12:40:50;;;;;;;4.68;2.75;;;3.20;87.10;;;;;;4983703;28;20241;-67
2021/01/06 12:43:26;;;;;;;3.47;2.75;;;3.20;88.60;;;;;;4988401;28;20245;-67
2021/01/06 12:46:11;;;;;;;3.47;2.50;;;3.20;92.00;;;;;;4988671;28;20300;-67
2021/01/06 12:48:53;;;;;;;3.50;2.60;;;3.10;92.30;;;;;;4988798;28;20206;-67
2021/01/06 12:51:23;;;;;;;2.97;2.67;;;3.10;88.40;;;;;;4990049;28;20643;-67
2021/01/06 12:54:00;;;;;;;3.25;2.67;;;3.20;90.50;;;;;;4989152;28;20620;-68
2021/01/06 12:56:41;;;;;;;2.97;2.60;;;3.10;86.90;;;;;;4988335;28;20182;-67
2021/01/06 12:59:22;;;;;;;2.75;2.08;;;3.20;90.20;;;;;;4988701;28;20187;-67
2021/01/06 13:02:23;;;;;;;2.65;2.40;;;3.20;92.90;;;;;;4988617;28;20192;-67
2021/01/06 13:04:50;;;;;;;2.67;2.22;;;3.20;90.30;;;;;;4987563;28;20653;-68
2021/01/06 13:07:25;;;;;;;3.90;2.80;;;3.20;82.20;;;;;;5002272;28;20194;-68
2021/01/06 13:09:56;;;;;;;3.17;2.40;;;3.10;82.90;;;;;;4989515;28;20188;-67
2021/01/06 13:12:30;;;;;;;3.10;2.50;;;3.10;90.10;;;;;;4989041;28;20706;-67
2021/01/06 13:15:24;;;;;;;3.45;2.58;;;3.20;84.80;;;;;;4988618;28;20183;-67
2021/01/06 13:18:03;;;;;;;2.65;2.40;;;3.20;86.10;;;;;;4988650;28;20255;-67
2021/01/06 13:20:58;;;;;;;3.05;2.20;;;3.20;85.60;;;;;;4987798;28;20214;-67
2021/01/06 13:23:39;;;;;;;2.40;2.20;;;3.20;73.60;;;;;;4987201;28;20183;-67
2021/01/06 13:26:16;;;;;;;3.33;2.70;;;3.20;64.30;;;;;;4987032;28;21363;-68
2021/01/06 13:28:53;;;;;;;3.00;2.50;;;3.20;55.80;;;;;;4983713;28;20692;-68
2021/01/06 13:31:22;;;;;;;3.05;2.47;;;3.20;56.30;;;;;;4985776;28;20830;-68
2021/01/06 13:34:06;;;;;;;4.43;2.70;;;3.20;55.70;;;;;;4988090;28;20184;-66
2021/01/06 13:36:46;;;;;;;3.40;2.63;;;3.20;59.20;;;;;;4988486;28;20180;-67
2021/01/06 13:39:43;;;;;;;2.70;2.28;;;3.20;64.60;;;;;;4988379;28;20192;-68